createdAt,value
2018-12-07T00:01:44.489Z,7.17
2018-12-07T00:04:16.772Z,7.87
2018-12-07T00:06:46.422Z,7.67
2018-12-07T00:09:15.973Z,6.58
2018-12-07T00:11:46.408Z,7.72
2018-12-07T00:14:16.358Z,7.35
2018-12-07T00:16:46.284Z,7.78
2018-12-07T00:19:16.218Z,8.08
2018-12-07T00:21:46.071Z,7.37
2018-12-07T00:24:15.853Z,6.95
2018-12-07T00:26:45.571Z,8.83
2018-12-07T00:29:16.671Z,7.97
2018-12-07T00:31:46.492Z,7.12
2018-12-07T00:34:17.532Z,8.85
2018-12-07T00:36:48.140Z,8.90
2018-12-07T00:39:18.538Z,8.43
2018-12-07T00:41:48.712Z,9.10
2018-12-07T00:44:19.105Z,9.10
2018-12-07T00:46:50.084Z,9.15
2018-12-07T00:49:19.969Z,8.50
2018-12-07T00:51:49.781Z,8.08
2018-12-07T00:54:20.115Z,9.53
2018-12-07T00:56:49.866Z,8.83
2018-12-07T00:59:20.892Z,8.73
2018-12-07T01:01:50.799Z,8.35
2018-12-07T01:04:20.515Z,8.15
2018-12-07T01:06:50.243Z,8.45
2018-12-07T01:09:20.003Z,10.10
2018-12-07T01:12:52.609Z,9.80
2018-12-07T01:15:22.458Z,11.65
2018-12-07T01:17:52.168Z,10.70
2018-12-07T01:20:23.112Z,11.68
2018-12-07T01:22:52.997Z,10.53
2018-12-07T01:25:23.602Z,11.43
2018-12-07T01:27:54.079Z,12.75
2018-12-07T01:30:24.048Z,11.55
2018-12-07T01:32:53.863Z,13.25
2018-12-07T01:35:23.642Z,10.20
2018-12-07T01:37:53.356Z,12.10
2018-12-07T01:40:23.173Z,12.00
2018-12-07T01:42:52.911Z,11.83
2018-12-07T01:45:22.588Z,12.88
2018-12-07T01:47:52.441Z,11.40
2018-12-07T01:50:23.360Z,12.53
2018-12-07T01:52:53.085Z,12.00
2018-12-07T01:55:22.834Z,11.53
2018-12-07T01:57:53.642Z,12.35
2018-12-07T02:00:24.554Z,13.20
2018-12-07T02:02:54.432Z,13.85
2018-12-07T02:05:24.216Z,15.60
2018-12-07T02:07:53.980Z,16.90
2018-12-07T02:10:23.898Z,17.12
2018-12-07T02:12:53.671Z,16.77
2018-12-07T02:15:23.474Z,17.23
2018-12-07T02:17:55.959Z,17.27
2018-12-07T02:20:25.871Z,18.70
2018-12-07T02:22:55.680Z,17.50
2018-12-07T02:25:26.774Z,19.48
2018-12-07T02:28:00.420Z,17.60
2018-12-07T02:30:31.283Z,17.20
2018-12-07T02:33:01.359Z,17.32
2018-12-07T02:35:31.089Z,19.85
2018-12-07T02:38:00.872Z,19.85
2018-12-07T02:40:30.704Z,20.85
2018-12-07T02:43:01.604Z,17.85
2018-12-07T02:45:31.362Z,18.75
2018-12-07T02:48:01.750Z,20.43
2018-12-07T02:50:32.040Z,21.70
2018-12-07T02:53:02.722Z,19.90
2018-12-07T02:55:33.053Z,21.52
2018-12-07T02:58:04.042Z,18.37
2018-12-07T03:00:34.063Z,22.25
2018-12-07T03:03:03.785Z,19.80
2018-12-07T03:05:33.802Z,18.98
2018-12-07T03:08:03.541Z,21.17
2018-12-07T03:10:33.419Z,19.30
2018-12-07T03:13:03.360Z,20.32
2018-12-07T03:15:33.237Z,19.15
2018-12-07T03:18:03.360Z,20.32
2018-12-07T03:20:33.348Z,20.60
2018-12-07T03:23:03.302Z,18.80
2018-12-07T03:25:33.103Z,19.55
2018-12-07T03:28:02.906Z,16.70
2018-12-07T03:30:32.770Z,19.30
2018-12-07T03:33:03.052Z,19.07
2018-12-07T03:35:32.761Z,19.37
2018-12-07T03:38:02.587Z,20.60
2018-12-07T03:40:32.611Z,19.60
2018-12-07T03:43:02.715Z,19.52
2018-12-07T03:45:32.424Z,18.82
2018-12-07T03:48:02.284Z,19.90
2018-12-07T03:50:32.194Z,17.55
2018-12-07T03:53:01.906Z,18.73
2018-12-07T03:55:31.866Z,19.35
2018-12-07T03:58:01.639Z,18.73
2018-12-07T04:00:31.511Z,19.32
2018-12-07T04:03:01.324Z,18.98
2018-12-07T04:05:31.080Z,18.02
2018-12-07T04:08:00.824Z,18.35
2018-12-07T04:10:31.468Z,15.78
2018-12-07T04:13:01.363Z,16.70
2018-12-07T04:15:31.287Z,16.42
2018-12-07T04:18:01.044Z,18.35
2018-12-07T04:20:30.905Z,15.75
2018-12-07T04:23:01.977Z,15.53
2018-12-07T04:25:31.838Z,14.70
2018-12-07T04:28:03.054Z,16.48
2018-12-07T04:30:35.764Z,16.82
2018-12-07T04:33:05.527Z,14.87
2018-12-07T04:35:35.172Z,17.25
2018-12-07T04:38:04.883Z,15.95
2018-12-07T04:40:35.753Z,17.50
2018-12-07T04:44:34.414Z,16.02
2018-12-07T04:47:04.423Z,17.45
2018-12-07T04:49:40.813Z,17.67
2018-12-07T04:52:10.630Z,17.75
2018-12-07T04:54:40.323Z,18.48
2018-12-07T04:57:10.086Z,18.67
2018-12-07T04:59:43.665Z,17.45
2018-12-07T05:02:13.477Z,18.48
2018-12-07T05:04:43.753Z,18.23
2018-12-07T05:07:13.628Z,17.23
2018-12-07T05:09:43.533Z,20.27
2018-12-07T05:12:13.325Z,18.50
2018-12-07T05:14:43.531Z,21.73
2018-12-07T05:17:13.329Z,20.17
2018-12-07T05:19:43.257Z,19.50
2018-12-07T05:22:13.026Z,19.40
2018-12-07T05:24:43.070Z,19.10
2018-12-07T05:27:12.895Z,21.42
2018-12-07T05:29:47.067Z,24.57
2018-12-07T05:32:16.989Z,27.93
2018-12-07T05:34:46.938Z,25.45
2018-12-07T05:37:19.930Z,26.82
2018-12-07T05:39:49.740Z,27.20
2018-12-07T05:42:20.426Z,23.30
2018-12-07T05:44:50.196Z,23.98
2018-12-07T05:47:20.217Z,23.75
2018-12-07T05:49:50.133Z,24.92
2018-12-07T05:52:20.294Z,25.27
2018-12-07T05:54:51.886Z,31.00
2018-12-07T05:57:23.934Z,26.80
2018-12-07T05:59:53.808Z,27.82
2018-12-07T06:02:23.559Z,29.32
2018-12-07T06:04:53.419Z,25.97
2018-12-07T06:07:23.222Z,24.18
2018-12-07T06:09:53.008Z,24.87
2018-12-07T06:12:23.011Z,23.85
2018-12-07T06:14:53.009Z,25.37
2018-12-07T06:17:22.828Z,25.50
2018-12-07T06:19:52.554Z,27.90
2018-12-07T06:22:22.388Z,24.45
2018-12-07T06:24:53.675Z,26.73
2018-12-07T06:27:23.968Z,27.50
2018-12-07T06:29:53.767Z,34.45
2018-12-07T06:32:24.751Z,30.70
2018-12-07T06:34:54.381Z,61.90
2018-12-07T06:37:24.697Z,94.97
2018-12-07T06:39:54.434Z,56.35
2018-12-07T06:42:24.094Z,36.10
2018-12-07T06:44:53.951Z,27.32
2018-12-07T06:47:23.674Z,27.02
2018-12-07T06:49:53.626Z,27.80
2018-12-07T06:52:23.502Z,25.65
2018-12-07T06:54:53.364Z,27.45
2018-12-07T06:57:23.114Z,26.70
2018-12-07T06:59:52.838Z,26.97
2018-12-07T07:02:22.639Z,25.60
2018-12-07T07:04:52.609Z,25.85
2018-12-07T07:07:22.434Z,25.40
2018-12-07T07:09:52.453Z,26.97
2018-12-07T07:12:22.259Z,26.00
2018-12-07T07:14:52.054Z,27.15
2018-12-07T07:17:21.897Z,26.82
2018-12-07T07:19:51.747Z,26.80
2018-12-07T07:22:21.496Z,26.48
2018-12-07T07:24:51.541Z,26.42
2018-12-07T07:27:22.284Z,30.25
2018-12-07T07:29:52.011Z,31.55
2018-12-07T07:32:21.837Z,30.52
2018-12-07T07:34:51.604Z,29.85
2018-12-07T07:37:21.403Z,29.40
2018-12-07T07:39:52.136Z,32.13
2018-12-07T07:42:21.771Z,32.00
2018-12-07T07:44:51.571Z,32.95
2018-12-07T07:47:21.384Z,30.25
2018-12-07T07:49:51.351Z,30.60
2018-12-07T07:52:21.116Z,32.73
2018-12-07T07:54:50.836Z,32.53
2018-12-07T07:57:20.549Z,30.62
2018-12-07T07:59:50.480Z,31.62
2018-12-07T08:02:20.430Z,29.95
2018-12-07T08:04:50.146Z,30.80
2018-12-07T08:07:20.019Z,32.58
2018-12-07T08:09:49.945Z,32.35
2018-12-07T08:12:19.830Z,31.40
2018-12-07T08:14:49.519Z,32.78
2018-12-07T08:17:21.028Z,31.70
2018-12-07T08:19:50.750Z,33.08
2018-12-07T08:22:20.551Z,33.05
2018-12-07T08:24:50.968Z,33.50
2018-12-07T08:27:20.700Z,35.10
2018-12-07T08:29:50.514Z,36.68
2018-12-07T08:32:21.135Z,37.88
2018-12-07T08:34:51.132Z,40.25
2018-12-07T08:37:20.987Z,38.42
2018-12-07T08:39:50.768Z,37.45
2018-12-07T08:42:20.519Z,36.77
2018-12-07T08:44:50.460Z,37.33
2018-12-07T08:47:20.138Z,35.65
2018-12-07T08:49:55.908Z,33.95
2018-12-07T08:52:25.767Z,35.80
2018-12-07T08:54:55.488Z,35.17
2018-12-07T08:57:25.397Z,34.50
2018-12-07T08:59:55.165Z,35.55
2018-12-07T09:02:25.041Z,34.67
2018-12-07T09:04:54.816Z,32.53
2018-12-07T09:07:24.523Z,31.23
2018-12-07T09:09:54.255Z,33.83
2018-12-07T09:12:24.131Z,35.30
2018-12-07T09:14:53.942Z,34.85
2018-12-07T09:17:23.584Z,34.70
2018-12-07T09:19:53.567Z,32.00
2018-12-07T09:22:23.281Z,31.82
2018-12-07T09:24:52.981Z,33.95
2018-12-07T09:27:23.099Z,32.98
2018-12-07T09:29:52.908Z,30.97
2018-12-07T09:32:22.669Z,25.23
2018-12-07T09:34:52.585Z,26.37
2018-12-07T09:37:22.323Z,24.60
2018-12-07T09:39:52.073Z,25.75
2018-12-07T09:42:21.779Z,24.23
2018-12-07T09:44:51.477Z,27.35
2018-12-07T09:47:21.196Z,25.75
2018-12-07T09:49:51.210Z,26.00
2018-12-07T09:52:20.983Z,25.55
2018-12-07T09:54:50.644Z,24.52
2018-12-07T09:57:20.372Z,22.55
2018-12-07T09:59:50.264Z,22.07
2018-12-07T10:02:20.075Z,22.87
2018-12-07T10:04:49.824Z,21.10
2018-12-07T10:07:19.658Z,22.77
2018-12-07T10:09:49.327Z,21.12
2018-12-07T10:12:19.033Z,20.48
2018-12-07T10:14:48.832Z,21.40
2018-12-07T10:17:18.609Z,22.13
2018-12-07T10:19:48.278Z,20.80
2018-12-07T10:22:17.917Z,21.70
2018-12-07T10:24:47.677Z,23.02
2018-12-07T10:27:17.505Z,23.35
2018-12-07T10:29:47.352Z,19.75
2018-12-07T10:32:17.181Z,23.02
2018-12-07T10:34:47.015Z,22.65
2018-12-07T10:37:16.876Z,20.37
2018-12-07T10:39:46.662Z,21.57
2018-12-07T10:42:16.603Z,21.33
2018-12-07T10:44:46.346Z,21.55
2018-12-07T10:47:16.137Z,22.42
2018-12-07T10:49:46.125Z,21.93
2018-12-07T10:52:15.891Z,21.27
2018-12-07T10:54:45.694Z,19.00
2018-12-07T10:57:16.700Z,20.10
2018-12-07T10:59:46.991Z,20.68
2018-12-07T11:02:21.964Z,19.65
2018-12-07T11:04:56.592Z,19.95
2018-12-07T11:07:31.237Z,19.00
2018-12-07T11:10:05.965Z,19.35
2018-12-07T11:12:40.570Z,17.17
2018-12-07T11:15:15.261Z,20.00
2018-12-07T11:17:50.141Z,18.02
2018-12-07T11:20:24.799Z,17.05
2018-12-07T11:22:59.735Z,16.35
2018-12-07T11:25:34.379Z,17.40
2018-12-07T11:28:09.137Z,16.95
2018-12-07T11:30:43.654Z,16.90
2018-12-07T11:33:18.369Z,17.65
2018-12-07T11:35:49.401Z,17.27
2018-12-07T11:38:19.100Z,17.25
2018-12-07T11:40:49.095Z,16.48
2018-12-07T11:43:18.945Z,18.07
2018-12-07T11:45:48.785Z,16.07
2018-12-07T11:48:18.581Z,16.47
2018-12-07T11:50:48.340Z,16.20
2018-12-07T11:53:18.194Z,16.47
2018-12-07T11:55:48.023Z,16.70
2018-12-07T11:58:17.770Z,18.30
2018-12-07T12:00:47.722Z,17.47
2018-12-07T12:03:17.472Z,18.83
2018-12-07T12:05:48.139Z,18.03
2018-12-07T12:08:18.793Z,16.00
2018-12-07T12:10:48.627Z,16.73
2018-12-07T12:13:18.434Z,17.15
2018-12-07T12:15:48.374Z,18.17
2018-12-07T12:18:18.013Z,20.50
2018-12-07T12:20:48.296Z,19.57
2018-12-07T12:23:18.706Z,20.90
2018-12-07T12:25:48.467Z,21.27
2018-12-07T12:28:18.284Z,21.40
2018-12-07T12:30:47.969Z,22.27
2018-12-07T12:33:17.693Z,21.20
2018-12-07T12:35:47.567Z,20.13
2018-12-07T12:38:17.368Z,21.60
2018-12-07T12:40:47.118Z,21.10
2018-12-07T12:43:16.996Z,21.00
2018-12-07T12:45:46.692Z,20.60
2018-12-07T12:48:16.697Z,21.37
2018-12-07T12:50:46.516Z,22.00
2018-12-07T12:53:16.362Z,20.50
2018-12-07T12:55:46.047Z,20.60
2018-12-07T12:58:15.720Z,20.97
2018-12-07T13:00:46.319Z,20.60
2018-12-07T13:03:15.999Z,21.00
2018-12-07T13:05:45.766Z,20.02
2018-12-07T13:08:15.549Z,19.07
2018-12-07T13:10:45.289Z,18.17
2018-12-07T13:13:15.168Z,18.53
2018-12-07T13:15:45.712Z,17.77
2018-12-07T13:18:15.841Z,18.65
2018-12-07T13:20:45.700Z,17.17
2018-12-07T13:23:15.492Z,17.80
2018-12-07T13:25:45.297Z,16.07
2018-12-07T13:28:15.154Z,15.72
2018-12-07T13:30:44.863Z,15.88
2018-12-07T13:33:14.792Z,15.65
2018-12-07T13:35:44.700Z,15.45
2018-12-07T13:38:14.400Z,15.20
2018-12-07T13:40:44.226Z,15.40
2018-12-07T13:43:14.082Z,15.78
2018-12-07T13:45:44.073Z,14.15
2018-12-07T13:48:14.148Z,14.03
2018-12-07T13:50:44.388Z,13.70
2018-12-07T13:53:14.347Z,14.75
2018-12-07T13:55:44.143Z,16.07
2018-12-07T13:58:14.332Z,17.25
2018-12-07T14:00:44.424Z,19.10
2018-12-07T14:03:15.017Z,18.80
2018-12-07T14:05:45.986Z,18.60
2018-12-07T14:08:16.828Z,18.12
2018-12-07T14:10:46.680Z,18.75
2018-12-07T14:13:16.572Z,19.05
2018-12-07T14:15:46.425Z,20.45
2018-12-07T14:18:16.845Z,21.42
2018-12-07T14:20:48.073Z,22.27
2018-12-07T14:23:17.787Z,22.58
2018-12-07T14:25:47.542Z,25.92
2018-12-07T14:28:17.529Z,29.67
2018-12-07T14:30:49.232Z,32.08
2018-12-07T14:33:20.781Z,28.60
2018-12-07T14:35:50.897Z,33.83
2018-12-07T14:38:20.894Z,33.90
2018-12-07T14:40:50.995Z,34.35
2018-12-07T14:43:20.971Z,35.88
2018-12-07T14:45:51.136Z,36.80
2018-12-07T14:48:21.025Z,36.30
2018-12-07T14:50:51.745Z,46.50
2018-12-07T14:53:21.849Z,53.73
2018-12-07T14:55:51.585Z,51.25
2018-12-07T14:58:21.487Z,49.30
2018-12-07T15:00:52.055Z,50.60
2018-12-07T15:03:22.307Z,54.90
2018-12-07T15:05:52.313Z,56.40
2018-12-07T15:08:22.295Z,44.15
2018-12-07T15:10:52.274Z,39.13
2018-12-07T15:13:23.519Z,53.68
2018-12-07T15:15:53.450Z,52.20
2018-12-07T15:18:23.288Z,56.98
2018-12-07T15:20:53.180Z,52.75
2018-12-07T15:23:22.994Z,49.08
2018-12-07T15:25:52.899Z,28.20
2018-12-07T15:28:22.624Z,23.80
2018-12-07T15:30:52.532Z,26.12
2018-12-07T15:33:22.727Z,24.15
2018-12-07T15:35:53.793Z,23.18
2018-12-07T15:38:23.832Z,14.18
2018-12-07T15:40:53.701Z,15.72
2018-12-07T15:43:24.219Z,13.28
2018-12-07T15:45:54.246Z,15.25
2018-12-07T15:48:24.963Z,15.15
2018-12-07T15:50:55.286Z,13.85
2018-12-07T15:53:25.549Z,12.75
2018-12-07T15:55:55.727Z,15.80
2018-12-07T15:58:25.688Z,19.90
2018-12-07T16:00:55.791Z,23.90
2018-12-07T16:03:27.004Z,38.70
2018-12-07T16:05:57.956Z,53.65
2018-12-07T16:08:28.301Z,55.43
2018-12-07T16:11:00.008Z,70.83
2018-12-07T16:13:29.906Z,66.95
2018-12-07T16:15:59.659Z,55.52
2018-12-07T16:18:29.580Z,42.33
2018-12-07T16:20:59.433Z,42.25
2018-12-07T16:23:29.315Z,40.92
2018-12-07T16:25:59.184Z,37.90
2018-12-07T16:28:29.256Z,32.60
2018-12-07T16:30:59.153Z,29.45
2018-12-07T16:33:29.153Z,31.20
2018-12-07T16:35:59.304Z,25.80
2018-12-07T16:38:29.128Z,24.92
2018-12-07T16:40:59.045Z,30.77
2018-12-07T16:43:28.872Z,30.50
2018-12-07T16:45:58.950Z,41.85
2018-12-07T16:48:29.357Z,61.40
2018-12-07T16:50:59.537Z,50.60
2018-12-07T16:53:31.098Z,43.40
2018-12-07T16:56:01.177Z,35.15
2018-12-07T16:58:31.908Z,37.65
2018-12-07T17:01:01.731Z,40.88
2018-12-07T17:03:31.575Z,62.25
2018-12-07T17:06:01.418Z,48.98
2018-12-07T17:08:31.622Z,40.90
2018-12-07T17:11:01.459Z,37.28
2018-12-07T17:13:31.493Z,36.23
2018-12-07T17:16:02.775Z,34.65
2018-12-07T17:18:32.726Z,27.95
2018-12-07T17:21:03.593Z,38.38
2018-12-07T17:23:33.579Z,36.35
2018-12-07T17:26:03.677Z,39.83
2018-12-07T17:28:33.721Z,38.78
2018-12-07T17:31:03.674Z,37.35
2018-12-07T17:33:33.602Z,36.20
2018-12-07T17:36:03.359Z,32.88
2018-12-07T17:38:33.555Z,34.05
2018-12-07T17:41:03.605Z,35.68
2018-12-07T17:43:33.827Z,36.30
2018-12-07T17:46:04.988Z,37.20
2018-12-07T17:48:34.940Z,38.73
2018-12-07T17:51:05.211Z,38.02
2018-12-07T17:53:35.485Z,39.70
2018-12-07T17:56:08.581Z,41.30
2018-12-07T17:58:39.479Z,40.95
2018-12-07T18:01:09.310Z,39.00
2018-12-07T18:03:45.741Z,40.98
2018-12-07T18:06:15.757Z,40.65
2018-12-07T18:08:45.905Z,35.95
2018-12-07T18:11:15.890Z,37.73
2018-12-07T18:13:45.644Z,48.10
2018-12-07T18:16:15.624Z,47.45
2018-12-07T18:18:45.438Z,42.60
2018-12-07T18:21:15.913Z,44.35
2018-12-07T18:23:46.539Z,43.48
2018-12-07T18:26:16.382Z,34.75
2018-12-07T18:28:47.549Z,37.85
2018-12-07T18:31:19.587Z,32.85
2018-12-07T18:33:49.902Z,22.52
2018-12-07T18:36:20.458Z,18.40
2018-12-07T18:38:50.365Z,17.17
2018-12-07T18:41:20.830Z,22.93
2018-12-07T18:43:51.540Z,27.87
2018-12-07T18:46:21.728Z,34.20
2018-12-07T18:48:51.470Z,35.52
2018-12-07T18:51:21.581Z,36.73
2018-12-07T18:53:52.073Z,39.15
2018-12-07T18:56:22.063Z,34.03
2018-12-07T18:58:52.130Z,34.00
2018-12-07T19:01:22.121Z,30.35
2018-12-07T19:03:52.592Z,27.67
2018-12-07T19:06:23.177Z,25.45
2018-12-07T19:08:53.190Z,23.80
2018-12-07T19:11:23.199Z,22.75
2018-12-07T19:13:53.066Z,19.80
2018-12-07T19:16:22.862Z,20.08
2018-12-07T19:18:55.094Z,23.77
2018-12-07T19:21:25.138Z,23.45
2018-12-07T19:23:55.245Z,23.70
2018-12-07T19:26:26.572Z,26.50
2018-12-07T19:28:56.492Z,26.42
2018-12-07T19:31:26.690Z,24.05
2018-12-07T19:33:56.702Z,21.40
2018-12-07T19:36:26.652Z,21.20
2018-12-07T19:38:56.533Z,20.15
2018-12-07T19:41:27.321Z,19.75
2018-12-07T19:43:57.140Z,18.92
2018-12-07T19:46:27.966Z,17.45
2018-12-07T19:48:57.825Z,17.42
2018-12-07T19:51:28.261Z,18.50
2018-12-07T19:54:02.614Z,16.93
2018-12-07T19:56:32.316Z,18.82
2018-12-07T19:59:01.957Z,18.37
2018-12-07T20:01:33.883Z,18.00
2018-12-07T20:04:03.731Z,17.92
2018-12-07T20:06:33.743Z,20.02
2018-12-07T20:09:05.049Z,20.20
2018-12-07T20:11:35.178Z,20.27
2018-12-07T20:14:05.570Z,18.20
2018-12-07T20:16:35.947Z,15.18
2018-12-07T20:19:05.859Z,15.55
2018-12-07T20:21:36.460Z,13.55
2018-12-07T20:24:06.664Z,15.85
2018-12-07T20:26:36.609Z,15.43
2018-12-07T20:29:08.217Z,17.02
2018-12-07T20:31:38.494Z,17.95
2018-12-07T20:34:08.671Z,18.17
2018-12-07T20:36:38.728Z,17.95
2018-12-07T20:39:09.325Z,15.55
2018-12-07T20:41:40.026Z,16.37
2018-12-07T20:44:09.991Z,16.23
2018-12-07T20:46:39.787Z,16.00
2018-12-07T20:49:09.555Z,16.10
2018-12-07T20:51:39.956Z,15.68
2018-12-07T20:54:10.022Z,14.07
2018-12-07T20:56:39.928Z,16.42
2018-12-07T20:59:09.757Z,16.87
2018-12-07T21:01:39.734Z,16.23
2018-12-07T21:04:25.072Z,15.98
2018-12-07T21:11:21.756Z,14.73
2018-12-07T21:14:06.219Z,14.25
2018-12-07T21:16:56.363Z,15.65
2018-12-07T21:19:26.190Z,14.00
2018-12-07T21:21:56.158Z,12.85
2018-12-07T21:24:26.215Z,13.03
2018-12-07T21:26:56.230Z,12.63
2018-12-07T21:29:26.151Z,13.22
2018-12-07T21:31:57.632Z,12.03
2018-12-07T21:35:07.443Z,12.20
2018-12-07T21:37:37.212Z,12.78
2018-12-07T21:40:20.127Z,13.15
2018-12-07T21:42:50.084Z,12.65
2018-12-07T21:45:20.676Z,11.95
2018-12-07T21:48:55.308Z,12.03
2018-12-07T21:52:31.045Z,12.30
2018-12-07T21:55:01.087Z,14.07
2018-12-07T21:57:30.936Z,15.45
2018-12-07T22:00:00.836Z,19.52
2018-12-07T22:02:30.773Z,22.27
2018-12-07T22:05:00.503Z,20.85
2018-12-07T22:07:30.505Z,24.50
2018-12-07T22:10:00.520Z,24.47
2018-12-07T22:12:30.530Z,25.75
2018-12-07T22:15:00.682Z,26.35
2018-12-07T22:17:30.625Z,24.20
2018-12-07T22:20:00.468Z,18.17
2018-12-07T22:22:30.708Z,17.70
2018-12-07T22:25:00.636Z,14.50
2018-12-07T22:27:30.789Z,14.40
2018-12-07T22:30:01.056Z,13.88
2018-12-07T22:32:31.686Z,13.53
2018-12-07T22:35:01.558Z,12.55
2018-12-07T22:37:31.396Z,13.30
2018-12-07T22:40:01.111Z,12.68
2018-12-07T22:42:30.872Z,13.75
2018-12-07T22:45:00.610Z,12.28
2018-12-07T22:47:31.591Z,11.40
2018-12-07T22:50:01.338Z,12.28
2018-12-07T22:52:31.194Z,11.85
2018-12-07T22:55:01.075Z,11.53
2018-12-07T22:57:30.754Z,11.75
2018-12-07T23:00:00.502Z,13.45
2018-12-07T23:02:30.185Z,11.70
2018-12-07T23:04:59.961Z,12.43
2018-12-07T23:07:29.794Z,12.18
2018-12-07T23:09:59.507Z,12.55
2018-12-07T23:12:29.230Z,12.68
2018-12-07T23:14:59.031Z,12.85
2018-12-07T23:17:28.842Z,13.25
2018-12-07T23:19:58.804Z,12.30
2018-12-07T23:22:28.535Z,12.33
2018-12-07T23:24:58.475Z,11.53
2018-12-07T23:27:28.263Z,11.08
2018-12-07T23:29:58.257Z,12.25
2018-12-07T23:32:28.057Z,13.53
2018-12-07T23:34:57.838Z,11.97
2018-12-07T23:37:27.541Z,13.78
2018-12-07T23:39:57.486Z,11.75
2018-12-07T23:42:27.199Z,12.47
2018-12-07T23:44:56.933Z,11.85
2018-12-07T23:47:26.692Z,10.60
2018-12-07T23:49:56.518Z,12.45
2018-12-07T23:52:26.283Z,10.63
2018-12-07T23:54:56.178Z,12.55
2018-12-07T23:57:25.939Z,12.93
2018-12-07T23:59:55.772Z,12.60
